sensor_id;sensor_type;location;lat;lon;timestamp;pressure;altitude;pressure_sealevel;temperature
24586;BMP280;12743;52.262;6.172;2022-08-14T00:01:31;100935.84;;;23.81
24586;BMP280;12743;52.262;6.172;2022-08-14T00:03:56;100951.81;;;24.07
24586;BMP280;12743;52.262;6.172;2022-08-14T00:06:21;100953.63;;;23.75
24586;BMP280;12743;52.262;6.172;2022-08-14T00:08:47;100973.19;;;24.47
24586;BMP280;12743;52.262;6.172;2022-08-14T00:11:12;100956.34;;;23.91
24586;BMP280;12743;52.262;6.172;2022-08-14T00:13:38;100975.84;;;24.31
24586;BMP280;12743;52.262;6.172;2022-08-14T00:16:03;100950.41;;;23.99
24586;BMP280;12743;52.262;6.172;2022-08-14T00:18:28;100923.75;;;23.92
24586;BMP280;12743;52.262;6.172;2022-08-14T00:20:55;100917.91;;;23.97
24586;BMP280;12743;52.262;6.172;2022-08-14T00:23:21;100970.16;;;24.45
24586;BMP280;12743;52.262;6.172;2022-08-14T00:25:49;100967.34;;;23.96
24586;BMP280;12743;52.262;6.172;2022-08-14T00:28:15;100899.72;;;23.69
24586;BMP280;12743;52.262;6.172;2022-08-14T00:30:40;100915.22;;;23.97
24586;BMP280;12743;52.262;6.172;2022-08-14T00:33:06;100932.19;;;24.27
24586;BMP280;12743;52.262;6.172;2022-08-14T00:35:32;100957.47;;;23.93
24586;BMP280;12743;52.262;6.172;2022-08-14T00:37:57;100948.59;;;24.12
24586;BMP280;12743;52.262;6.172;2022-08-14T00:40:24;100954.63;;;24.00
24586;BMP280;12743;52.262;6.172;2022-08-14T00:42:50;100951.53;;;24.02
24586;BMP280;12743;52.262;6.172;2022-08-14T00:45:16;100949.75;;;24.15
24586;BMP280;12743;52.262;6.172;2022-08-14T00:47:44;100942.53;;;24.28
24586;BMP280;12743;52.262;6.172;2022-08-14T00:50:12;100884.41;;;23.66
24586;BMP280;12743;52.262;6.172;2022-08-14T00:52:38;100924.94;;;23.52
24586;BMP280;12743;52.262;6.172;2022-08-14T00:55:05;100931.84;;;23.30
24586;BMP280;12743;52.262;6.172;2022-08-14T00:57:33;100925.41;;;23.47
24586;BMP280;12743;52.262;6.172;2022-08-14T01:00:00;100914.66;;;23.86
24586;BMP280;12743;52.262;6.172;2022-08-14T01:02:26;100908.84;;;23.72
24586;BMP280;12743;52.262;6.172;2022-08-14T01:04:55;100878.59;;;23.32
24586;BMP280;12743;52.262;6.172;2022-08-14T01:07:23;100905.09;;;23.69
24586;BMP280;12743;52.262;6.172;2022-08-14T01:09:57;100908.28;;;23.61
24586;BMP280;12743;52.262;6.172;2022-08-14T01:12:24;100907.75;;;23.50
24586;BMP280;12743;52.262;6.172;2022-08-14T01:14:50;100894.19;;;23.37
24586;BMP280;12743;52.262;6.172;2022-08-14T01:17:17;100857.22;;;23.29
24586;BMP280;12743;52.262;6.172;2022-08-14T01:19:43;100859.09;;;23.09
24586;BMP280;12743;52.262;6.172;2022-08-14T01:22:27;100887.81;;;23.08
24586;BMP280;12743;52.262;6.172;2022-08-14T01:24:52;100847.03;;;23.20
24586;BMP280;12743;52.262;6.172;2022-08-14T01:27:20;100902.56;;;23.59
24586;BMP280;12743;52.262;6.172;2022-08-14T01:29:49;100902.03;;;23.67
24586;BMP280;12743;52.262;6.172;2022-08-14T01:32:17;100861.53;;;23.42
24586;BMP280;12743;52.262;6.172;2022-08-14T01:34:46;100838.72;;;23.15
24586;BMP280;12743;52.262;6.172;2022-08-14T01:37:12;100901.56;;;23.53
24586;BMP280;12743;52.262;6.172;2022-08-14T01:39:38;100897.50;;;23.64
24586;BMP280;12743;52.262;6.172;2022-08-14T01:42:03;100883.88;;;23.55
24586;BMP280;12743;52.262;6.172;2022-08-14T01:44:29;100838.44;;;23.09
24586;BMP280;12743;52.262;6.172;2022-08-14T01:46:57;100883.81;;;23.39
24586;BMP280;12743;52.262;6.172;2022-08-14T01:49:24;100849.56;;;23.08
24586;BMP280;12743;52.262;6.172;2022-08-14T01:51:50;100797.81;;;22.91
24586;BMP280;12743;52.262;6.172;2022-08-14T01:54:21;100843.78;;;23.48
24586;BMP280;12743;52.262;6.172;2022-08-14T01:56:50;100847.25;;;23.29
24586;BMP280;12743;52.262;6.172;2022-08-14T02:01:41;100882.91;;;23.26
24586;BMP280;12743;52.262;6.172;2022-08-14T02:04:08;100833.75;;;22.93
24586;BMP280;12743;52.262;6.172;2022-08-14T02:06:34;100859.69;;;23.39
24586;BMP280;12743;52.262;6.172;2022-08-14T02:09:03;100865.31;;;23.25
24586;BMP280;12743;52.262;6.172;2022-08-14T02:11:29;100843.44;;;23.07
24586;BMP280;12743;52.262;6.172;2022-08-14T02:13:55;100859.91;;;23.29
24586;BMP280;12743;52.262;6.172;2022-08-14T02:16:26;100856.94;;;23.04
24586;BMP280;12743;52.262;6.172;2022-08-14T02:18:59;100832.38;;;22.85
24586;BMP280;12743;52.262;6.172;2022-08-14T02:21:27;100823.44;;;22.92
24586;BMP280;12743;52.262;6.172;2022-08-14T02:23:54;100833.53;;;23.04
24586;BMP280;12743;52.262;6.172;2022-08-14T02:26:25;100795.84;;;22.72
24586;BMP280;12743;52.262;6.172;2022-08-14T02:28:54;100838.88;;;22.84
24586;BMP280;12743;52.262;6.172;2022-08-14T02:31:20;100815.75;;;22.71
24586;BMP280;12743;52.262;6.172;2022-08-14T02:33:46;100805.41;;;22.73
24586;BMP280;12743;52.262;6.172;2022-08-14T02:36:12;100842.25;;;22.88
24586;BMP280;12743;52.262;6.172;2022-08-14T02:38:38;100842.03;;;22.79
24586;BMP280;12743;52.262;6.172;2022-08-14T02:41:07;100837.72;;;22.85
24586;BMP280;12743;52.262;6.172;2022-08-14T02:43:33;100835.66;;;22.93
24586;BMP280;12743;52.262;6.172;2022-08-14T02:45:58;100809.78;;;22.63
24586;BMP280;12743;52.262;6.172;2022-08-14T02:48:24;100772.88;;;22.28
24586;BMP280;12743;52.262;6.172;2022-08-14T02:50:59;100794.88;;;22.39
24586;BMP280;12743;52.262;6.172;2022-08-14T02:53:24;100815.66;;;22.55
24586;BMP280;12743;52.262;6.172;2022-08-14T02:55:50;100807.84;;;22.44
24586;BMP280;12743;52.262;6.172;2022-08-14T02:58:15;100826.78;;;22.53
24586;BMP280;12743;52.262;6.172;2022-08-14T03:00:41;100783.00;;;22.17
24586;BMP280;12743;52.262;6.172;2022-08-14T03:03:10;100821.13;;;22.48
24586;BMP280;12743;52.262;6.172;2022-08-14T03:05:35;100814.19;;;22.27
24586;BMP280;12743;52.262;6.172;2022-08-14T03:08:11;100833.19;;;22.36
24586;BMP280;12743;52.262;6.172;2022-08-14T03:10:37;100800.97;;;22.17
24586;BMP280;12743;52.262;6.172;2022-08-14T03:13:03;100836.03;;;22.22
24586;BMP280;12743;52.262;6.172;2022-08-14T03:15:32;100832.06;;;22.34
24586;BMP280;12743;52.262;6.172;2022-08-14T03:18:09;100830.31;;;22.24
24586;BMP280;12743;52.262;6.172;2022-08-14T03:20:34;100763.28;;;21.81
24586;BMP280;12743;52.262;6.172;2022-08-14T03:23:00;100796.53;;;22.07
24586;BMP280;12743;52.262;6.172;2022-08-14T03:25:26;100810.31;;;22.05
24586;BMP280;12743;52.262;6.172;2022-08-14T03:27:55;100799.78;;;21.95
24586;BMP280;12743;52.262;6.172;2022-08-14T03:30:20;100822.13;;;22.08
24586;BMP280;12743;52.262;6.172;2022-08-14T03:32:46;100810.03;;;21.96
24586;BMP280;12743;52.262;6.172;2022-08-14T03:35:11;100731.28;;;21.44
24586;BMP280;12743;52.262;6.172;2022-08-14T03:37:36;100819.41;;;22.11
24586;BMP280;12743;52.262;6.172;2022-08-14T03:40:03;100830.09;;;22.11
24586;BMP280;12743;52.262;6.172;2022-08-14T03:42:30;100822.88;;;22.08
24586;BMP280;12743;52.262;6.172;2022-08-14T03:44:56;100785.59;;;21.71
24586;BMP280;12743;52.262;6.172;2022-08-14T03:47:23;100791.97;;;21.77
24586;BMP280;12743;52.262;6.172;2022-08-14T03:49:49;100782.94;;;21.67
24586;BMP280;12743;52.262;6.172;2022-08-14T03:52:14;100779.13;;;21.68
24586;BMP280;12743;52.262;6.172;2022-08-14T03:54:39;100766.97;;;21.60
24586;BMP280;12743;52.262;6.172;2022-08-14T03:57:06;100794.06;;;21.62
24586;BMP280;12743;52.262;6.172;2022-08-14T03:59:34;100802.63;;;21.80
24586;BMP280;12743;52.262;6.172;2022-08-14T04:02:00;100796.75;;;21.62
24586;BMP280;12743;52.262;6.172;2022-08-14T04:04:29;100805.84;;;21.68
24586;BMP280;12743;52.262;6.172;2022-08-14T04:06:54;100754.28;;;21.38
24586;BMP280;12743;52.262;6.172;2022-08-14T04:09:19;100770.09;;;21.55
24586;BMP280;12743;52.262;6.172;2022-08-14T04:11:45;100756.56;;;21.39
24586;BMP280;12743;52.262;6.172;2022-08-14T04:14:11;100785.66;;;21.64
24586;BMP280;12743;52.262;6.172;2022-08-14T04:16:38;100780.25;;;21.71
24586;BMP280;12743;52.262;6.172;2022-08-14T04:19:06;100795.94;;;21.65
24586;BMP280;12743;52.262;6.172;2022-08-14T04:21:32;100813.69;;;21.49
24586;BMP280;12743;52.262;6.172;2022-08-14T04:23:59;100805.03;;;21.75
24586;BMP280;12743;52.262;6.172;2022-08-14T04:26:26;100742.78;;;21.41
24586;BMP280;12743;52.262;6.172;2022-08-14T04:28:58;100783.03;;;21.60
24586;BMP280;12743;52.262;6.172;2022-08-14T04:31:24;100751.72;;;21.31
24586;BMP280;12743;52.262;6.172;2022-08-14T04:33:49;100798.91;;;21.74
24586;BMP280;12743;52.262;6.172;2022-08-14T04:36:17;100784.66;;;21.54
24586;BMP280;12743;52.262;6.172;2022-08-14T04:38:42;100796.91;;;21.78
24586;BMP280;12743;52.262;6.172;2022-08-14T04:41:26;100772.91;;;21.45
24586;BMP280;12743;52.262;6.172;2022-08-14T04:44:10;100780.66;;;21.66
24586;BMP280;12743;52.262;6.172;2022-08-14T04:46:36;100768.56;;;21.24
24586;BMP280;12743;52.262;6.172;2022-08-14T04:49:02;100796.34;;;21.64
24586;BMP280;12743;52.262;6.172;2022-08-14T04:51:28;100765.25;;;21.47
24586;BMP280;12743;52.262;6.172;2022-08-14T04:53:54;100773.81;;;21.35
24586;BMP280;12743;52.262;6.172;2022-08-14T04:56:24;100796.84;;;21.55
24586;BMP280;12743;52.262;6.172;2022-08-14T04:58:55;100798.19;;;21.70
24586;BMP280;12743;52.262;6.172;2022-08-14T05:01:26;100794.94;;;21.52
24586;BMP280;12743;52.262;6.172;2022-08-14T05:03:52;100790.22;;;21.33
24586;BMP280;12743;52.262;6.172;2022-08-14T05:06:19;100773.97;;;21.17
24586;BMP280;12743;52.262;6.172;2022-08-14T05:08:44;100766.50;;;21.05
24586;BMP280;12743;52.262;6.172;2022-08-14T05:11:10;100759.19;;;21.09
24586;BMP280;12743;52.262;6.172;2022-08-14T05:13:36;100788.78;;;21.25
24586;BMP280;12743;52.262;6.172;2022-08-14T05:16:03;100737.91;;;21.02
24586;BMP280;12743;52.262;6.172;2022-08-14T05:18:31;100711.09;;;20.79
24586;BMP280;12743;52.262;6.172;2022-08-14T05:20:59;100783.78;;;21.31
24586;BMP280;12743;52.262;6.172;2022-08-14T05:23:27;100723.50;;;20.55
24586;BMP280;12743;52.262;6.172;2022-08-14T05:25:55;100766.97;;;21.30
24586;BMP280;12743;52.262;6.172;2022-08-14T05:28:26;100753.94;;;21.02
24586;BMP280;12743;52.262;6.172;2022-08-14T05:30:57;100741.47;;;20.89
24586;BMP280;12743;52.262;6.172;2022-08-14T05:33:24;100745.56;;;20.97
24586;BMP280;12743;52.262;6.172;2022-08-14T05:35:51;100757.28;;;21.43
24586;BMP280;12743;52.262;6.172;2022-08-14T05:38:20;100753.97;;;20.99
24586;BMP280;12743;52.262;6.172;2022-08-14T05:40:46;100759.72;;;21.31
24586;BMP280;12743;52.262;6.172;2022-08-14T05:43:13;100728.94;;;21.49
24586;BMP280;12743;52.262;6.172;2022-08-14T05:45:39;100736.19;;;21.49
24586;BMP280;12743;52.262;6.172;2022-08-14T05:48:05;100745.22;;;21.32
24586;BMP280;12743;52.262;6.172;2022-08-14T05:50:31;100757.78;;;21.35
24586;BMP280;12743;52.262;6.172;2022-08-14T05:52:57;100748.03;;;21.51
24586;BMP280;12743;52.262;6.172;2022-08-14T05:55:23;100752.47;;;21.61
24586;BMP280;12743;52.262;6.172;2022-08-14T05:57:58;100661.63;;;21.01
24586;BMP280;12743;52.262;6.172;2022-08-14T06:00:27;100751.72;;;21.61
24586;BMP280;12743;52.262;6.172;2022-08-14T06:02:53;100727.56;;;21.08
24586;BMP280;12743;52.262;6.172;2022-08-14T06:05:20;100713.19;;;21.28
24586;BMP280;12743;52.262;6.172;2022-08-14T06:07:46;100739.53;;;21.56
24586;BMP280;12743;52.262;6.172;2022-08-14T06:10:11;100707.38;;;21.33
24586;BMP280;12743;52.262;6.172;2022-08-14T06:12:37;100706.56;;;21.36
24586;BMP280;12743;52.262;6.172;2022-08-14T06:15:04;100702.97;;;21.50
24586;BMP280;12743;52.262;6.172;2022-08-14T06:17:30;100724.66;;;21.82
24586;BMP280;12743;52.262;6.172;2022-08-14T06:19:55;100733.75;;;21.61
24586;BMP280;12743;52.262;6.172;2022-08-14T06:22:21;100677.91;;;21.40
24586;BMP280;12743;52.262;6.172;2022-08-14T06:24:46;100730.88;;;22.02
24586;BMP280;12743;52.262;6.172;2022-08-14T06:27:12;100761.16;;;22.19
24586;BMP280;12743;52.262;6.172;2022-08-14T06:29:37;100742.78;;;22.24
24586;BMP280;12743;52.262;6.172;2022-08-14T06:32:03;100752.00;;;22.43
24586;BMP280;12743;52.262;6.172;2022-08-14T06:34:29;100701.97;;;22.17
24586;BMP280;12743;52.262;6.172;2022-08-14T06:36:54;100729.38;;;22.24
24586;BMP280;12743;52.262;6.172;2022-08-14T06:39:22;100731.66;;;22.68
24586;BMP280;12743;52.262;6.172;2022-08-14T06:41:47;100735.22;;;22.62
24586;BMP280;12743;52.262;6.172;2022-08-14T06:44:13;100744.84;;;22.79
24586;BMP280;12743;52.262;6.172;2022-08-14T06:46:39;100713.53;;;22.76
24586;BMP280;12743;52.262;6.172;2022-08-14T06:49:04;100722.97;;;23.04
24586;BMP280;12743;52.262;6.172;2022-08-14T06:51:30;100707.50;;;23.11
24586;BMP280;12743;52.262;6.172;2022-08-14T06:53:55;100739.28;;;22.89
24586;BMP280;12743;52.262;6.172;2022-08-14T06:56:21;100761.66;;;23.38
24586;BMP280;12743;52.262;6.172;2022-08-14T06:58:47;100754.13;;;23.69
24586;BMP280;12743;52.262;6.172;2022-08-14T07:01:12;100739.34;;;23.77
24586;BMP280;12743;52.262;6.172;2022-08-14T07:03:56;100731.72;;;23.59
24586;BMP280;12743;52.262;6.172;2022-08-14T07:06:40;100741.25;;;23.60
24586;BMP280;12743;52.262;6.172;2022-08-14T07:09:08;100737.34;;;23.97
24586;BMP280;12743;52.262;6.172;2022-08-14T07:11:34;100721.34;;;23.93
24586;BMP280;12743;52.262;6.172;2022-08-14T07:13:59;100720.31;;;24.03
24586;BMP280;12743;52.262;6.172;2022-08-14T07:16:24;100739.34;;;24.09
24586;BMP280;12743;52.262;6.172;2022-08-14T07:18:50;100709.66;;;23.84
24586;BMP280;12743;52.262;6.172;2022-08-14T07:21:15;100711.25;;;24.13
24586;BMP280;12743;52.262;6.172;2022-08-14T07:23:41;100720.22;;;24.07
24586;BMP280;12743;52.262;6.172;2022-08-14T07:26:06;100720.66;;;24.22
24586;BMP280;12743;52.262;6.172;2022-08-14T07:28:37;100736.69;;;24.54
24586;BMP280;12743;52.262;6.172;2022-08-14T07:31:05;100720.94;;;24.40
24586;BMP280;12743;52.262;6.172;2022-08-14T07:33:39;100749.25;;;24.57
24586;BMP280;12743;52.262;6.172;2022-08-14T07:36:07;100723.72;;;24.65
24586;BMP280;12743;52.262;6.172;2022-08-14T07:38:34;100715.00;;;24.61
24586;BMP280;12743;52.262;6.172;2022-08-14T07:41:00;100749.19;;;25.01
24586;BMP280;12743;52.262;6.172;2022-08-14T07:43:26;100731.53;;;24.88
24586;BMP280;12743;52.262;6.172;2022-08-14T07:45:51;100708.50;;;24.87
24586;BMP280;12743;52.262;6.172;2022-08-14T07:48:17;100700.59;;;25.21
24586;BMP280;12743;52.262;6.172;2022-08-14T07:50:42;100740.59;;;25.44
24586;BMP280;12743;52.262;6.172;2022-08-14T07:53:08;100708.31;;;25.19
24586;BMP280;12743;52.262;6.172;2022-08-14T07:55:33;100688.00;;;25.18
24586;BMP280;12743;52.262;6.172;2022-08-14T07:58:00;100687.03;;;25.37
24586;BMP280;12743;52.262;6.172;2022-08-14T08:00:25;100725.25;;;25.91
24586;BMP280;12743;52.262;6.172;2022-08-14T08:02:53;100704.00;;;25.47
24586;BMP280;12743;52.262;6.172;2022-08-14T08:05:21;100705.44;;;25.85
24586;BMP280;12743;52.262;6.172;2022-08-14T08:07:48;100702.97;;;25.91
24586;BMP280;12743;52.262;6.172;2022-08-14T08:10:17;100712.31;;;26.20
24586;BMP280;12743;52.262;6.172;2022-08-14T08:13:07;100702.75;;;25.85
24586;BMP280;12743;52.262;6.172;2022-08-14T08:16:02;100721.78;;;26.25
24586;BMP280;12743;52.262;6.172;2022-08-14T08:18:30;100694.78;;;25.94
24586;BMP280;12743;52.262;6.172;2022-08-14T08:20:56;100717.84;;;26.38
24586;BMP280;12743;52.262;6.172;2022-08-14T08:23:22;100696.78;;;26.24
24586;BMP280;12743;52.262;6.172;2022-08-14T08:25:49;100691.75;;;26.26
24586;BMP280;12743;52.262;6.172;2022-08-14T08:28:23;100643.28;;;26.26
24586;BMP280;12743;52.262;6.172;2022-08-14T08:30:55;100691.81;;;26.97
24586;BMP280;12743;52.262;6.172;2022-08-14T08:33:22;100680.63;;;26.67
24586;BMP280;12743;52.262;6.172;2022-08-14T08:35:48;100700.38;;;27.04
24586;BMP280;12743;52.262;6.172;2022-08-14T08:38:19;100694.63;;;27.33
24586;BMP280;12743;52.262;6.172;2022-08-14T08:40:47;100672.78;;;26.91
24586;BMP280;12743;52.262;6.172;2022-08-14T08:45:56;100649.91;;;27.05
24586;BMP280;12743;52.262;6.172;2022-08-14T08:48:23;100647.91;;;27.45
24586;BMP280;12743;52.262;6.172;2022-08-14T08:50:58;100670.09;;;27.58
24586;BMP280;12743;52.262;6.172;2022-08-14T08:53:30;100676.75;;;27.17
24586;BMP280;12743;52.262;6.172;2022-08-14T08:55:58;100679.25;;;27.60
24586;BMP280;12743;52.262;6.172;2022-08-14T08:58:24;100673.53;;;27.85
24586;BMP280;12743;52.262;6.172;2022-08-14T09:00:53;100659.88;;;27.35
24586;BMP280;12743;52.262;6.172;2022-08-14T09:03:26;100616.13;;;27.22
24586;BMP280;12743;52.262;6.172;2022-08-14T09:08:23;100615.84;;;27.38
24586;BMP280;12743;52.262;6.172;2022-08-14T09:10:53;100673.69;;;27.82
24586;BMP280;12743;52.262;6.172;2022-08-14T09:13:19;100662.28;;;27.60
24586;BMP280;12743;52.262;6.172;2022-08-14T09:15:48;100624.34;;;27.90
24586;BMP280;12743;52.262;6.172;2022-08-14T09:18:16;100674.72;;;28.11
24586;BMP280;12743;52.262;6.172;2022-08-14T09:20:44;100651.78;;;28.07
24586;BMP280;12743;52.262;6.172;2022-08-14T09:23:11;100681.59;;;28.30
24586;BMP280;12743;52.262;6.172;2022-08-14T09:25:39;100643.13;;;28.45
24586;BMP280;12743;52.262;6.172;2022-08-14T09:28:06;100679.13;;;28.60
24586;BMP280;12743;52.262;6.172;2022-08-14T09:30:36;100642.38;;;27.84
24586;BMP280;12743;52.262;6.172;2022-08-14T09:44:01;100653.13;;;29.18
24586;BMP280;12743;52.262;6.172;2022-08-14T09:46:28;100633.03;;;28.87
24586;BMP280;12743;52.262;6.172;2022-08-14T09:49:03;100653.28;;;29.53
24586;BMP280;12743;52.262;6.172;2022-08-14T09:51:30;100637.81;;;29.53
24586;BMP280;12743;52.262;6.172;2022-08-14T09:54:06;100655.66;;;28.98
24586;BMP280;12743;52.262;6.172;2022-08-14T09:56:49;100623.22;;;29.36
24586;BMP280;12743;52.262;6.172;2022-08-14T09:59:16;100623.59;;;29.29
24586;BMP280;12743;52.262;6.172;2022-08-14T10:01:48;100581.59;;;29.34
24586;BMP280;12743;52.262;6.172;2022-08-14T10:04:25;100609.97;;;29.38
24586;BMP280;12743;52.262;6.172;2022-08-14T10:06:52;100621.66;;;29.21
24586;BMP280;12743;52.262;6.172;2022-08-14T10:09:18;100618.41;;;29.17
24586;BMP280;12743;52.262;6.172;2022-08-14T10:11:57;100521.41;;;28.86
24586;BMP280;12743;52.262;6.172;2022-08-14T10:14:24;100586.88;;;29.52
24586;BMP280;12743;52.262;6.172;2022-08-14T10:16:57;100598.75;;;29.69
24586;BMP280;12743;52.262;6.172;2022-08-14T10:19:24;100596.22;;;29.94
24586;BMP280;12743;52.262;6.172;2022-08-14T10:21:59;100569.75;;;29.89
24586;BMP280;12743;52.262;6.172;2022-08-14T10:24:43;100570.50;;;29.61
24586;BMP280;12743;52.262;6.172;2022-08-14T10:27:23;100556.34;;;29.80
24586;BMP280;12743;52.262;6.172;2022-08-14T10:29:52;100583.44;;;30.30
24586;BMP280;12743;52.262;6.172;2022-08-14T10:32:18;100541.41;;;29.85
24586;BMP280;12743;52.262;6.172;2022-08-14T10:34:46;100537.41;;;30.35
24586;BMP280;12743;52.262;6.172;2022-08-14T10:37:13;100568.50;;;30.74
24586;BMP280;12743;52.262;6.172;2022-08-14T10:39:55;100557.97;;;30.42
24586;BMP280;12743;52.262;6.172;2022-08-14T10:42:21;100571.91;;;30.15
24586;BMP280;12743;52.262;6.172;2022-08-14T10:44:46;100567.59;;;30.63
24586;BMP280;12743;52.262;6.172;2022-08-14T10:47:14;100554.84;;;30.49
24586;BMP280;12743;52.262;6.172;2022-08-14T10:49:54;100534.19;;;30.51
24586;BMP280;12743;52.262;6.172;2022-08-14T10:52:31;100554.56;;;31.07
24586;BMP280;12743;52.262;6.172;2022-08-14T10:55:15;100540.34;;;30.72
24586;BMP280;12743;52.262;6.172;2022-08-14T10:57:54;100535.06;;;30.63
24586;BMP280;12743;52.262;6.172;2022-08-14T11:00:23;100528.22;;;30.87
24586;BMP280;12743;52.262;6.172;2022-08-14T11:03:11;100554.25;;;31.25
24586;BMP280;12743;52.262;6.172;2022-08-14T11:05:45;100549.44;;;30.89
24586;BMP280;12743;52.262;6.172;2022-08-14T11:08:12;100549.13;;;31.27
24586;BMP280;12743;52.262;6.172;2022-08-14T11:10:48;100544.69;;;31.29
24586;BMP280;12743;52.262;6.172;2022-08-14T11:13:20;100539.06;;;31.38
24586;BMP280;12743;52.262;6.172;2022-08-14T11:15:47;100516.72;;;31.49
24586;BMP280;12743;52.262;6.172;2022-08-14T11:18:14;100539.81;;;31.70
24586;BMP280;12743;52.262;6.172;2022-08-14T11:20:47;100507.19;;;31.64
24586;BMP280;12743;52.262;6.172;2022-08-14T11:23:14;100502.38;;;31.79
24586;BMP280;12743;52.262;6.172;2022-08-14T11:25:43;100544.31;;;31.47
24586;BMP280;12743;52.262;6.172;2022-08-14T11:28:11;100526.75;;;31.74
24586;BMP280;12743;52.262;6.172;2022-08-14T11:30:38;100500.78;;;32.04
24586;BMP280;12743;52.262;6.172;2022-08-14T11:33:05;100501.44;;;31.93
24586;BMP280;12743;52.262;6.172;2022-08-14T11:35:31;100517.66;;;32.19
24586;BMP280;12743;52.262;6.172;2022-08-14T11:37:59;100491.31;;;32.53
24586;BMP280;12743;52.262;6.172;2022-08-14T11:40:32;100524.25;;;31.65
24586;BMP280;12743;52.262;6.172;2022-08-14T11:43:08;100442.69;;;31.54
24586;BMP280;12743;52.262;6.172;2022-08-14T11:45:44;100486.78;;;32.22
24586;BMP280;12743;52.262;6.172;2022-08-14T11:48:24;100494.94;;;32.22
24586;BMP280;12743;52.262;6.172;2022-08-14T11:50:50;100495.97;;;31.82
24586;BMP280;12743;52.262;6.172;2022-08-14T11:53:23;100485.06;;;32.30
24586;BMP280;12743;52.262;6.172;2022-08-14T11:55:59;100478.75;;;31.60
24586;BMP280;12743;52.262;6.172;2022-08-14T11:58:34;100487.28;;;32.21
24586;BMP280;12743;52.262;6.172;2022-08-14T12:01:06;100479.09;;;32.15
24586;BMP280;12743;52.262;6.172;2022-08-14T12:03:39;100491.19;;;32.20
24586;BMP280;12743;52.262;6.172;2022-08-14T12:06:07;100489.91;;;32.04
24586;BMP280;12743;52.262;6.172;2022-08-14T12:08:35;100457.19;;;31.87
24586;BMP280;12743;52.262;6.172;2022-08-14T12:11:01;100487.38;;;31.95
24586;BMP280;12743;52.262;6.172;2022-08-14T12:13:29;100472.81;;;31.98
24586;BMP280;12743;52.262;6.172;2022-08-14T12:16:05;100495.44;;;32.21
24586;BMP280;12743;52.262;6.172;2022-08-14T12:18:34;100490.03;;;32.37
24586;BMP280;12743;52.262;6.172;2022-08-14T12:21:22;100483.03;;;32.14
24586;BMP280;12743;52.262;6.172;2022-08-14T12:24:06;100477.81;;;32.91
24586;BMP280;12743;52.262;6.172;2022-08-14T12:26:32;100466.91;;;33.19
24586;BMP280;12743;52.262;6.172;2022-08-14T12:29:12;100469.53;;;33.74
24586;BMP280;12743;52.262;6.172;2022-08-14T12:31:39;100456.75;;;33.36
24586;BMP280;12743;52.262;6.172;2022-08-14T12:34:07;100441.41;;;33.22
24586;BMP280;12743;52.262;6.172;2022-08-14T12:36:34;100463.13;;;33.66
24586;BMP280;12743;52.262;6.172;2022-08-14T12:39:16;100487.41;;;34.26
24586;BMP280;12743;52.262;6.172;2022-08-14T12:41:48;100479.59;;;34.06
24586;BMP280;12743;52.262;6.172;2022-08-14T12:44:16;100477.56;;;33.11
24586;BMP280;12743;52.262;6.172;2022-08-14T12:47:07;100478.28;;;32.95
24586;BMP280;12743;52.262;6.172;2022-08-14T12:49:46;100469.88;;;32.71
24586;BMP280;12743;52.262;6.172;2022-08-14T12:52:12;100456.47;;;33.50
24586;BMP280;12743;52.262;6.172;2022-08-14T12:54:37;100409.38;;;33.66
24586;BMP280;12743;52.262;6.172;2022-08-14T12:57:11;100452.06;;;33.31
24586;BMP280;12743;52.262;6.172;2022-08-14T12:59:38;100377.81;;;33.93
24586;BMP280;12743;52.262;6.172;2022-08-14T13:02:03;100423.69;;;34.29
24586;BMP280;12743;52.262;6.172;2022-08-14T13:04:29;100416.69;;;33.03
24586;BMP280;12743;52.262;6.172;2022-08-14T13:07:00;100422.84;;;32.76
24586;BMP280;12743;52.262;6.172;2022-08-14T13:09:28;100410.97;;;33.18
24586;BMP280;12743;52.262;6.172;2022-08-14T13:11:55;100384.38;;;33.62
24586;BMP280;12743;52.262;6.172;2022-08-14T13:14:22;100393.63;;;34.00
24586;BMP280;12743;52.262;6.172;2022-08-14T13:16:55;100421.19;;;34.31
24586;BMP280;12743;52.262;6.172;2022-08-14T13:19:22;100419.41;;;33.93
24586;BMP280;12743;52.262;6.172;2022-08-14T13:21:50;100333.53;;;33.70
24586;BMP280;12743;52.262;6.172;2022-08-14T13:24:18;100390.28;;;34.53
24586;BMP280;12743;52.262;6.172;2022-08-14T13:26:46;100406.06;;;34.36
24586;BMP280;12743;52.262;6.172;2022-08-14T13:29:18;100404.56;;;34.64
24586;BMP280;12743;52.262;6.172;2022-08-14T13:31:43;100355.00;;;34.60
24586;BMP280;12743;52.262;6.172;2022-08-14T13:34:14;100397.09;;;34.41
24586;BMP280;12743;52.262;6.172;2022-08-14T13:36:40;100373.72;;;34.99
24586;BMP280;12743;52.262;6.172;2022-08-14T13:39:06;100360.34;;;33.61
24586;BMP280;12743;52.262;6.172;2022-08-14T13:41:32;100357.88;;;34.09
24586;BMP280;12743;52.262;6.172;2022-08-14T13:43:58;100385.09;;;34.79
24586;BMP280;12743;52.262;6.172;2022-08-14T13:46:25;100375.69;;;35.84
24586;BMP280;12743;52.262;6.172;2022-08-14T13:48:51;100363.66;;;35.55
24586;BMP280;12743;52.262;6.172;2022-08-14T13:51:17;100362.41;;;36.38
24586;BMP280;12743;52.262;6.172;2022-08-14T13:53:46;100354.41;;;35.77
24586;BMP280;12743;52.262;6.172;2022-08-14T13:56:13;100358.31;;;35.26
24586;BMP280;12743;52.262;6.172;2022-08-14T13:58:43;100347.44;;;35.20
24586;BMP280;12743;52.262;6.172;2022-08-14T14:01:16;100334.47;;;35.45
24586;BMP280;12743;52.262;6.172;2022-08-14T14:03:44;100334.91;;;34.88
24586;BMP280;12743;52.262;6.172;2022-08-14T14:06:14;100330.78;;;35.61
24586;BMP280;12743;52.262;6.172;2022-08-14T14:08:46;100295.78;;;34.80
24586;BMP280;12743;52.262;6.172;2022-08-14T14:11:13;100344.78;;;35.15
24586;BMP280;12743;52.262;6.172;2022-08-14T14:13:38;100323.22;;;34.39
24586;BMP280;12743;52.262;6.172;2022-08-14T14:16:05;100306.09;;;34.03
24586;BMP280;12743;52.262;6.172;2022-08-14T14:18:34;100308.78;;;34.44
24586;BMP280;12743;52.262;6.172;2022-08-14T14:21:01;100302.53;;;33.84
24586;BMP280;12743;52.262;6.172;2022-08-14T14:23:28;100293.59;;;33.89